createdAt,value
2023-09-10T00:01:06.009Z,97358.72
2023-09-10T00:03:51.395Z,97353.53
2023-09-10T00:06:36.911Z,97358.53
2023-09-10T00:09:22.470Z,97361.28
2023-09-10T00:12:07.705Z,97362.09
2023-09-10T00:14:52.982Z,97368.88
2023-09-10T00:17:38.139Z,97359.84
2023-09-10T00:20:23.535Z,97362.34
2023-09-10T00:23:08.462Z,97364.22
2023-09-10T00:25:53.909Z,97356.31
2023-09-10T00:28:39.550Z,97358.81
2023-09-10T00:31:25.054Z,97353.09
2023-09-10T00:34:10.488Z,97352.34
2023-09-10T00:36:56.065Z,97356.44
2023-09-10T00:39:41.008Z,97352.09
2023-09-10T00:42:25.915Z,97363.56
2023-09-10T00:45:10.891Z,97360.06
2023-09-10T00:47:56.197Z,97362.53
2023-09-10T00:50:41.627Z,97358.09
2023-09-10T00:53:26.716Z,97356.19
2023-09-10T00:56:11.688Z,97342.03
2023-09-10T00:58:57.128Z,97347.75
2023-09-10T01:01:42.639Z,97340.09
2023-09-10T01:04:28.180Z,97343.94
2023-09-10T01:07:13.420Z,97340.16
2023-09-10T01:09:58.319Z,97337.72
2023-09-10T01:12:43.610Z,97343.44
2023-09-10T01:15:28.522Z,97343.97
2023-09-10T01:18:13.714Z,97350.53
2023-09-10T01:20:59.208Z,97350.53
2023-09-10T01:23:44.588Z,97356.84
2023-09-10T01:26:30.141Z,97354.34
2023-09-10T01:29:15.519Z,97354.94
2023-09-10T01:32:00.916Z,97356.25
2023-09-10T01:34:46.184Z,97359.88
2023-09-10T01:37:31.344Z,97360.16
2023-09-10T01:40:16.448Z,97356.63
2023-09-10T01:43:01.661Z,97361.28
2023-09-10T01:45:46.627Z,97367.50
2023-09-10T01:48:31.816Z,97365.34
2023-09-10T01:51:17.041Z,97368.09
2023-09-10T01:54:02.113Z,97365.69
2023-09-10T01:56:47.287Z,97368.13
2023-09-10T01:59:32.370Z,97373.53
2023-09-10T02:02:17.559Z,97374.66
2023-09-10T02:05:03.305Z,97371.44
2023-09-10T02:07:48.844Z,97380.75
2023-09-10T02:10:34.022Z,97369.59
2023-09-10T02:13:19.492Z,97372.84
2023-09-10T02:16:05.020Z,97381.84
2023-09-10T02:18:50.451Z,97380.50
2023-09-10T02:21:35.413Z,97370.63
2023-09-10T02:24:20.752Z,97382.66
2023-09-10T02:27:05.861Z,97381.59
2023-09-10T02:29:51.262Z,97379.13
2023-09-10T02:32:36.592Z,97384.03
2023-09-10T02:35:21.901Z,97379.69
2023-09-10T02:38:07.143Z,97384.03
2023-09-10T02:40:52.499Z,97385.13
2023-09-10T02:43:37.856Z,97382.41
2023-09-10T02:46:23.109Z,97383.28
2023-09-10T02:49:08.596Z,97391.44
2023-09-10T02:51:53.578Z,97388.97
2023-09-10T02:54:38.457Z,97390.59
2023-09-10T02:57:23.577Z,97391.44
2023-09-10T03:00:09.110Z,97393.88
2023-09-10T03:02:54.453Z,97395.78
2023-09-10T03:05:39.870Z,97390.41
2023-09-10T03:08:24.811Z,97390.47
2023-09-10T03:11:10.257Z,97394.81
2023-09-10T03:13:55.667Z,97398.81
2023-09-10T03:16:41.168Z,97390.63
2023-09-10T03:19:26.645Z,97393.09
2023-09-10T03:22:11.820Z,97384.97
2023-09-10T03:24:57.021Z,97388.03
2023-09-10T03:27:42.408Z,97380.38
2023-09-10T03:30:27.992Z,97384.72
2023-09-10T03:33:13.189Z,97391.00
2023-09-10T03:35:58.412Z,97389.63
2023-09-10T03:38:43.988Z,97391.28
2023-09-10T03:41:29.291Z,97394.78
2023-09-10T03:44:14.745Z,97392.88
2023-09-10T03:47:00.082Z,97390.44
2023-09-10T03:49:45.555Z,97395.63
2023-09-10T03:52:31.061Z,97388.28
2023-09-10T03:55:16.701Z,97394.81
2023-09-10T03:58:01.917Z,97390.50
2023-09-10T04:00:47.002Z,97390.72
2023-09-10T04:03:32.443Z,97392.66
2023-09-10T04:06:17.850Z,97395.13
2023-09-10T04:09:03.066Z,97395.09
2023-09-10T04:11:48.084Z,97396.47
2023-09-10T04:14:33.018Z,97394.81
2023-09-10T04:17:18.222Z,97403.81
2023-09-10T04:20:03.600Z,97398.38
2023-09-10T04:22:48.765Z,97404.38
2023-09-10T04:25:34.143Z,97408.75
2023-09-10T04:28:19.099Z,97400.28
2023-09-10T04:31:04.321Z,97406.28
2023-09-10T04:33:49.361Z,97409.28
2023-09-10T04:36:34.512Z,97413.63
2023-09-10T04:39:19.307Z,97413.63
2023-09-10T04:42:04.422Z,97409.28
2023-09-10T04:44:49.919Z,97411.22
2023-09-10T04:47:35.488Z,97417.75
2023-09-10T04:50:20.797Z,97419.09
2023-09-10T04:53:06.321Z,97415.03
2023-09-10T04:55:51.703Z,97423.72
2023-09-10T04:58:37.179Z,97426.75
2023-09-10T05:01:22.745Z,97428.06
2023-09-10T05:04:08.249Z,97425.34
2023-09-10T05:06:53.624Z,97426.72
2023-09-10T05:09:38.890Z,97426.16
2023-09-10T05:12:23.711Z,97428.88
2023-09-10T05:15:08.786Z,97433.78
2023-09-10T05:17:53.798Z,97432.41
2023-09-10T05:20:39.472Z,97439.25
2023-09-10T05:23:24.859Z,97441.69
2023-09-10T05:26:10.083Z,97446.03
2023-09-10T05:28:55.653Z,97440.06
2023-09-10T05:31:41.067Z,97441.44
2023-09-10T05:34:26.499Z,97441.69
2023-09-10T05:37:11.615Z,97445.22
2023-09-10T05:39:56.847Z,97443.59
2023-09-10T05:42:41.899Z,97452.56
2023-09-10T05:45:27.365Z,97454.19
2023-09-10T05:48:12.406Z,97451.47
2023-09-10T05:50:57.405Z,97455.88
2023-09-10T05:53:42.434Z,97459.13
2023-09-10T05:56:27.798Z,97464.28
2023-09-10T05:59:12.772Z,97468.38
2023-09-10T06:01:58.064Z,97482.53
2023-09-10T06:04:43.486Z,97476.25
2023-09-10T06:07:28.854Z,97476.81
2023-09-10T06:10:13.682Z,97475.44
2023-09-10T06:12:58.654Z,97475.16
2023-09-10T06:15:43.608Z,97478.69
2023-09-10T06:18:28.474Z,97483.63
2023-09-10T06:21:13.557Z,97483.09
2023-09-10T06:23:58.513Z,97483.63
2023-09-10T06:26:43.727Z,97482.28
2023-09-10T06:29:29.127Z,97490.19
2023-09-10T06:32:14.296Z,97486.91
2023-09-10T06:35:00.026Z,97483.63
2023-09-10T06:37:45.422Z,97476.28
2023-09-10T06:40:30.799Z,97477.91
2023-09-10T06:43:16.404Z,97485.81
2023-09-10T06:46:01.883Z,97489.63
2023-09-10T06:48:47.413Z,97489.59
2023-09-10T06:51:32.630Z,97481.97
2023-09-10T06:54:17.679Z,97488.22
2023-09-10T06:57:02.903Z,97491.22
2023-09-10T06:59:47.861Z,97477.88
2023-09-10T07:02:32.777Z,97486.88
2023-09-10T07:05:18.018Z,97484.16
2023-09-10T07:08:03.363Z,97486.28
2023-09-10T07:10:48.939Z,97486.84
2023-09-10T07:13:34.345Z,97481.63
2023-09-10T07:16:19.516Z,97491.16
2023-09-10T07:19:05.041Z,97489.78
2023-09-10T07:21:50.163Z,97489.97
2023-09-10T07:24:35.327Z,97489.75
2023-09-10T07:27:20.274Z,97494.41
2023-09-10T07:30:05.641Z,97494.69
2023-09-10T07:32:50.790Z,97495.25
2023-09-10T07:35:36.171Z,97496.59
2023-09-10T07:38:21.343Z,97495.00
2023-09-10T07:41:06.876Z,97485.97
2023-09-10T07:43:52.080Z,97490.88
2023-09-10T07:46:37.481Z,97490.63
2023-09-10T07:49:22.341Z,97493.88
2023-09-10T07:52:07.349Z,97483.75
2023-09-10T07:54:52.402Z,97488.38
2023-09-10T07:57:38.006Z,97480.72
2023-09-10T08:00:23.344Z,97485.38
2023-09-10T08:03:08.525Z,97484.22
2023-09-10T08:05:54.069Z,97488.03
2023-09-10T08:08:39.659Z,97485.88
2023-09-10T08:11:24.970Z,97493.25
2023-09-10T08:14:09.862Z,97494.31
2023-09-10T08:16:55.356Z,97493.44
2023-09-10T08:19:40.791Z,97484.78
2023-09-10T08:22:25.754Z,97489.56
2023-09-10T08:25:10.889Z,97490.88
2023-09-10T08:27:55.811Z,97489.84
2023-09-10T08:30:40.911Z,97497.72
2023-09-10T08:33:26.195Z,97500.38
2023-09-10T08:36:11.244Z,97491.63
2023-09-10T08:38:56.238Z,97493.03
2023-09-10T08:41:41.431Z,97493.56
2023-09-10T08:44:27.026Z,97483.91
2023-09-10T08:47:12.533Z,97483.22
2023-09-10T08:49:58.019Z,97473.47
2023-09-10T08:52:43.059Z,97470.25
2023-09-10T08:55:28.534Z,97475.13
2023-09-10T08:58:13.690Z,97473.09
2023-09-10T09:00:58.886Z,97472.47
2023-09-10T09:03:44.453Z,97471.28
2023-09-10T09:06:29.790Z,97466.91
2023-09-10T09:09:15.157Z,97466.09
2023-09-10T09:12:00.195Z,97466.22
2023-09-10T09:14:45.489Z,97473.50
2023-09-10T09:17:30.851Z,97462.53
2023-09-10T09:20:16.199Z,97455.38
2023-09-10T09:23:03.974Z,97462.81
2023-09-10T09:25:50.711Z,97457.97
2023-09-10T09:28:35.953Z,97450.84
2023-09-10T09:31:22.746Z,97440.44
2023-09-10T09:34:08.088Z,97446.03
2023-09-10T09:36:53.212Z,97444.19
2023-09-10T09:39:38.332Z,97453.88
2023-09-10T09:42:23.736Z,97446.94
2023-09-10T09:45:09.306Z,97447.81
2023-09-10T09:47:54.628Z,97448.22
2023-09-10T09:50:39.985Z,97442.94
2023-09-10T09:53:25.611Z,97441.81
2023-09-10T09:56:11.130Z,97431.72
2023-09-10T09:58:56.655Z,97434.66
2023-09-10T10:01:42.085Z,97437.19
2023-09-10T10:04:27.634Z,97430.09
2023-09-10T10:07:23.090Z,97435.81
2023-09-10T10:10:10.942Z,97437.72
2023-09-10T10:12:56.503Z,97430.16
2023-09-10T10:15:41.529Z,97427.72
2023-09-10T10:18:29.909Z,97427.66
2023-09-10T10:21:16.503Z,97423.50
2023-09-10T10:24:02.082Z,97411.66
2023-09-10T10:26:47.243Z,97411.31
2023-09-10T10:29:32.420Z,97413.34
2023-09-10T10:32:17.931Z,97411.97
2023-09-10T10:35:03.347Z,97415.88
2023-09-10T10:37:48.781Z,97411.09
2023-09-10T10:40:33.972Z,97410.56
2023-09-10T10:43:18.919Z,97402.38
2023-09-10T10:46:04.337Z,97404.19
2023-09-10T10:48:49.381Z,97393.69
2023-09-10T10:51:45.533Z,97395.69
2023-09-10T10:54:38.805Z,97389.59
2023-09-10T10:57:23.812Z,97394.31
2023-09-10T11:00:08.830Z,97388.31
2023-09-10T11:02:54.208Z,97384.13
2023-09-10T11:05:39.632Z,97386.22
2023-09-10T11:08:25.177Z,97375.81
2023-09-10T11:11:10.501Z,97379.94
2023-09-10T11:13:56.035Z,97361.78
2023-09-10T11:16:41.430Z,97361.34
2023-09-10T11:19:26.362Z,97361.88
2023-09-10T11:22:11.317Z,97366.09
2023-09-10T11:24:56.745Z,97365.97
2023-09-10T11:27:41.836Z,97364.22
2023-09-10T11:30:26.880Z,97370.50
2023-09-10T11:33:12.038Z,97362.88
2023-09-10T11:35:57.460Z,97360.56
2023-09-10T11:38:43.145Z,97362.47
2023-09-10T11:41:28.351Z,97360.53
2023-09-10T11:44:13.818Z,97352.63
2023-09-10T11:46:59.088Z,97348.34
2023-09-10T11:49:44.459Z,97341.88
2023-09-10T11:52:29.694Z,97344.28
2023-09-10T11:55:14.605Z,97351.13
2023-09-10T11:57:59.967Z,97342.56
2023-09-10T12:00:45.177Z,97342.56
2023-09-10T12:03:30.737Z,97339.00
2023-09-10T12:06:16.002Z,97335.78
2023-09-10T12:09:01.207Z,97333.41
2023-09-10T12:11:46.375Z,97327.13
2023-09-10T12:14:31.749Z,97321.22
2023-09-10T12:17:17.132Z,97313.97
2023-09-10T12:20:02.709Z,97316.97
2023-09-10T12:22:48.029Z,97307.16
2023-09-10T12:25:33.282Z,97303.84
2023-09-10T12:28:18.759Z,97303.84
2023-09-10T12:31:04.169Z,97318.00
2023-09-10T12:33:49.253Z,97304.66
2023-09-10T12:36:34.207Z,97302.88
2023-09-10T12:39:19.371Z,97302.16
2023-09-10T12:42:04.260Z,97300.00
2023-09-10T12:44:49.222Z,97308.41
2023-09-10T12:47:34.582Z,97298.06
2023-09-10T12:50:19.716Z,97293.13
2023-09-10T12:53:05.293Z,97297.47
2023-09-10T12:55:50.679Z,97291.41
2023-09-10T12:58:36.184Z,97286.28
2023-09-10T13:01:21.597Z,97286.59
2023-09-10T13:04:06.956Z,97288.41
2023-09-10T13:06:52.263Z,97282.91
2023-09-10T13:09:37.294Z,97277.69
2023-09-10T13:12:22.706Z,97282.13
2023-09-10T13:15:07.556Z,97274.72
2023-09-10T13:17:52.638Z,97271.78
2023-09-10T13:20:38.039Z,97271.81
2023-09-10T13:23:23.698Z,97269.63
2023-09-10T13:26:09.029Z,97269.56
2023-09-10T13:28:54.552Z,97263.69
2023-09-10T13:31:40.071Z,97268.75
2023-09-10T13:34:25.153Z,97264.84
2023-09-10T13:37:10.602Z,97261.38
2023-09-10T13:39:55.426Z,97263.63
2023-09-10T13:42:40.541Z,97255.41
2023-09-10T13:45:25.660Z,97255.31
2023-09-10T13:48:10.870Z,97256.09
2023-09-10T13:50:56.384Z,97252.88
2023-09-10T13:53:41.778Z,97259.19
2023-09-10T13:56:27.100Z,97252.19
2023-09-10T13:59:12.643Z,97248.53
2023-09-10T14:01:58.052Z,97249.09
2023-09-10T14:04:43.505Z,97247.72
2023-09-10T14:07:28.758Z,97237.41
2023-09-10T14:10:14.009Z,97245.81
2023-09-10T14:12:59.397Z,97238.28
2023-09-10T14:15:44.378Z,97224.81
2023-09-10T14:18:29.854Z,97229.91
2023-09-10T14:21:14.912Z,97224.81
2023-09-10T14:23:59.881Z,97229.59
2023-09-10T14:26:45.248Z,97230.50
2023-09-10T14:29:30.262Z,97231.81
2023-09-10T14:32:15.834Z,97218.13
2023-09-10T14:35:01.294Z,97223.22
2023-09-10T14:37:46.756Z,97216.13
2023-09-10T14:40:31.785Z,97219.13
2023-09-10T14:43:16.986Z,97214.38
2023-09-10T14:46:02.152Z,97211.94
2023-09-10T14:48:47.493Z,97212.03
2023-09-10T14:51:32.907Z,97207.22
2023-09-10T14:54:17.958Z,97199.16
2023-09-10T14:57:03.048Z,97201.09
2023-09-10T14:59:48.590Z,97194.56
2023-09-10T15:02:34.086Z,97192.75
2023-09-10T15:05:19.886Z,97199.09
2023-09-10T15:08:05.191Z,97198.44
2023-09-10T15:10:50.524Z,97187.91
2023-09-10T15:13:35.497Z,97189.38
2023-09-10T15:16:20.499Z,97195.38
2023-09-10T15:19:05.705Z,97194.38
2023-09-10T15:21:50.817Z,97187.44
2023-09-10T15:24:35.751Z,97188.38
2023-09-10T15:27:20.709Z,97181.78
2023-09-10T15:30:05.632Z,97183.09
2023-09-10T15:32:50.751Z,97175.94
2023-09-10T15:35:35.915Z,97176.28
2023-09-10T15:38:21.363Z,97178.06
2023-09-10T15:41:06.291Z,97170.47
2023-09-10T15:43:51.624Z,97177.22
2023-09-10T15:46:37.125Z,97175.78
2023-09-10T15:49:22.706Z,97173.34
2023-09-10T15:52:08.218Z,97177.25
2023-09-10T15:54:53.613Z,97173.03
2023-09-10T15:57:39.032Z,97172.25
2023-09-10T16:00:24.017Z,97170.94
2023-09-10T16:03:09.697Z,97165.91
2023-09-10T16:05:54.899Z,97162.81
2023-09-10T16:08:40.015Z,97155.41
2023-09-10T16:11:25.491Z,97163.16
2023-09-10T16:14:10.895Z,97162.78
2023-09-10T16:16:56.234Z,97172.72
2023-09-10T16:19:41.705Z,97167.53
2023-09-10T16:22:26.673Z,97168.31
2023-09-10T16:25:12.053Z,97166.53
2023-09-10T16:27:57.185Z,97164.88
2023-09-10T16:30:42.267Z,97164.06
2023-09-10T16:33:27.335Z,97164.84
2023-09-10T16:36:12.709Z,97170.81
2023-09-10T16:38:57.669Z,97171.16
2023-09-10T16:41:42.784Z,97164.81
2023-09-10T16:44:27.983Z,97164.28
2023-09-10T16:47:13.307Z,97166.34
2023-09-10T16:49:58.319Z,97169.38
2023-09-10T16:52:43.382Z,97171.78
2023-09-10T16:55:28.773Z,97168.69
2023-09-10T16:58:13.681Z,97168.22
2023-09-10T17:00:58.738Z,97171.91
2023-09-10T17:03:44.472Z,97171.38
2023-09-10T17:06:30.198Z,97172.00
2023-09-10T17:09:15.578Z,97171.31
2023-09-10T17:12:00.955Z,97164.56
2023-09-10T17:14:45.933Z,97164.72
2023-09-10T17:17:31.412Z,97163.19
2023-09-10T17:20:16.692Z,97163.44
2023-09-10T17:23:02.014Z,97162.03
2023-09-10T17:25:47.267Z,97165.53
2023-09-10T17:28:32.293Z,97162.34
2023-09-10T17:31:17.297Z,97166.28
2023-09-10T17:34:02.704Z,97163.78
2023-09-10T17:36:48.209Z,97170.06
2023-09-10T17:39:33.312Z,97169.69
2023-09-10T17:42:18.495Z,97170.63
2023-09-10T17:45:03.728Z,97167.06
2023-09-10T17:47:49.021Z,97177.75
2023-09-10T17:50:34.625Z,97179.03
2023-09-10T17:53:20.254Z,97183.81
2023-09-10T17:56:05.630Z,97183.50
2023-09-10T17:58:50.686Z,97185.63
2023-09-10T18:01:35.600Z,97189.81
2023-09-10T18:04:20.989Z,97191.63
2023-09-10T18:07:06.356Z,97185.34
2023-09-10T18:09:51.806Z,97195.50
2023-09-10T18:12:37.016Z,97193.47
2023-09-10T18:15:22.551Z,97194.97
2023-09-10T18:18:08.026Z,97196.16
2023-09-10T18:20:53.324Z,97205.81
2023-09-10T18:23:39.220Z,97201.97
2023-09-10T18:26:25.060Z,97210.69
2023-09-10T18:29:10.436Z,97213.84
2023-09-10T18:31:55.972Z,97215.88
2023-09-10T18:34:41.229Z,97221.03
2023-09-10T18:37:26.711Z,97217.59
2023-09-10T18:40:11.643Z,97224.16
2023-09-10T18:42:56.648Z,97230.56
2023-09-10T18:45:41.703Z,97231.47
2023-09-10T18:48:26.943Z,97232.97
2023-09-10T18:51:12.519Z,97228.81
2023-09-10T18:53:57.830Z,97236.03
2023-09-10T18:56:42.994Z,97232.09
2023-09-10T18:59:31.623Z,97237.69
2023-09-10T19:02:17.029Z,97244.13
2023-09-10T19:05:02.188Z,97249.38
2023-09-10T19:07:47.216Z,97242.47
2023-09-10T19:10:32.441Z,97245.69
2023-09-10T19:13:17.570Z,97248.06
2023-09-10T19:16:02.977Z,97250.66
2023-09-10T19:18:48.344Z,97250.94
2023-09-10T19:21:33.235Z,97245.63
2023-09-10T19:24:18.241Z,97252.69
2023-09-10T19:27:03.342Z,97244.16
2023-09-10T19:29:48.862Z,97242.78
2023-09-10T19:32:34.486Z,97242.41
2023-09-10T19:35:19.956Z,97248.69
2023-09-10T19:38:05.150Z,97243.81
2023-09-10T19:40:50.188Z,97252.03
2023-09-10T19:43:35.699Z,97255.97
2023-09-10T19:46:21.318Z,97253.00
2023-09-10T19:49:06.767Z,97256.47
2023-09-10T19:51:51.976Z,97251.97
2023-09-10T19:54:37.048Z,97254.38
2023-09-10T19:57:22.022Z,97247.84
2023-09-10T20:00:06.936Z,97248.47
2023-09-10T20:02:52.443Z,97255.00
2023-09-10T20:05:37.958Z,97254.75
2023-09-10T20:08:23.050Z,97254.22
2023-09-10T20:11:08.586Z,97258.28
2023-09-10T20:13:53.747Z,97256.13
2023-09-10T20:16:38.796Z,97262.28
2023-09-10T20:19:24.221Z,97255.69
2023-09-10T20:22:09.501Z,97256.59
2023-09-10T20:24:54.977Z,97254.16
2023-09-10T20:27:40.203Z,97262.69
2023-09-10T20:30:25.134Z,97259.69
2023-09-10T20:33:10.156Z,97258.88
2023-09-10T20:35:55.648Z,97264.94
2023-09-10T20:38:40.971Z,97263.69
2023-09-10T20:41:26.377Z,97261.53
2023-09-10T20:44:11.930Z,97265.88
2023-09-10T20:46:57.147Z,97270.03
2023-09-10T20:49:42.694Z,97257.16
2023-09-10T20:52:28.728Z,97260.78
2023-09-10T20:55:14.886Z,97257.22
2023-09-10T20:58:00.272Z,97261.13
2023-09-10T21:00:45.723Z,97255.38
2023-09-10T21:03:31.347Z,97264.38
2023-09-10T21:06:16.862Z,97256.31
2023-09-10T21:09:02.044Z,97255.44
2023-09-10T21:11:47.073Z,97255.78
2023-09-10T21:14:32.487Z,97259.06
2023-09-10T21:17:17.976Z,97258.25
2023-09-10T21:20:03.469Z,97256.59
2023-09-10T21:22:48.440Z,97257.47
2023-09-10T21:25:33.581Z,97264.56
2023-09-10T21:28:18.641Z,97263.50
2023-09-10T21:31:03.925Z,97259.63
2023-09-10T21:33:49.292Z,97252.34
2023-09-10T21:36:34.707Z,97255.94
2023-09-10T21:39:19.632Z,97264.78
2023-09-10T21:42:04.557Z,97261.47
2023-09-10T21:44:49.577Z,97258.72
2023-09-10T21:47:35.328Z,97264.44
2023-09-10T21:50:20.740Z,97254.88
2023-09-10T21:53:05.769Z,97255.19
2023-09-10T21:55:50.687Z,97256.59
2023-09-10T21:58:35.571Z,97251.53
2023-09-10T22:01:20.549Z,97251.41
2023-09-10T22:04:06.183Z,97251.72
2023-09-10T22:06:51.229Z,97253.31
2023-09-10T22:09:36.322Z,97244.19
2023-09-10T22:12:21.468Z,97244.16
2023-09-10T22:15:07.006Z,97254.50
2023-09-10T22:17:52.032Z,97246.06
2023-09-10T22:20:37.536Z,97246.19
2023-09-10T22:23:22.977Z,97246.19
2023-09-10T22:26:08.475Z,97250.25
2023-09-10T22:28:53.459Z,97257.63
2023-09-10T22:31:38.749Z,97250.78
2023-09-10T22:34:24.129Z,97249.19
2023-09-10T22:37:09.402Z,97254.09
2023-09-10T22:39:54.385Z,97257.97
2023-09-10T22:42:39.524Z,97256.88
2023-09-10T22:45:24.909Z,97259.88
2023-09-10T22:48:10.061Z,97257.00
2023-09-10T22:50:55.336Z,97256.75
2023-09-10T22:53:40.425Z,97247.84
2023-09-10T22:56:25.686Z,97247.69
2023-09-10T22:59:10.601Z,97248.31
2023-09-10T23:01:55.637Z,97253.22
2023-09-10T23:04:40.804Z,97254.56
2023-09-10T23:07:26.323Z,97252.41
2023-09-10T23:10:21.098Z,97255.94
2023-09-10T23:13:07.477Z,97252.72
2023-09-10T23:15:52.342Z,97250.25
2023-09-10T23:18:37.376Z,97250.63
2023-09-10T23:21:22.654Z,97247.63
2023-09-10T23:24:07.666Z,97249.47
2023-09-10T23:26:52.639Z,97250.34
2023-09-10T23:29:37.734Z,97240.53
2023-09-10T23:32:22.868Z,97241.97
2023-09-10T23:35:08.168Z,97246.91
2023-09-10T23:37:53.141Z,97244.84
2023-09-10T23:40:38.200Z,97244.53
2023-09-10T23:43:23.366Z,97241.88
2023-09-10T23:46:08.461Z,97241.66
2023-09-10T23:48:53.913Z,97242.25
2023-09-10T23:51:39.001Z,97241.19
2023-09-10T23:54:24.399Z,97242.09
2023-09-10T23:57:10.057Z,97243.88
2023-09-10T23:59:55.296Z,97246.22
